createdAt,value
2018-08-06T00:00:28.035Z,58.60
2018-08-06T00:02:56.496Z,58.50
2018-08-06T00:05:25.220Z,59.00
2018-08-06T00:07:54.256Z,58.80
2018-08-06T00:10:24.754Z,59.10
2018-08-06T00:12:53.701Z,59.20
2018-08-06T00:15:22.433Z,59.40
2018-08-06T00:17:51.180Z,59.40
2018-08-06T00:20:20.164Z,59.40
2018-08-06T00:22:49.111Z,59.30
2018-08-06T00:25:18.284Z,59.30
2018-08-06T00:30:17.483Z,59.80
2018-08-06T00:32:46.946Z,59.70
2018-08-06T00:35:16.115Z,60.40
2018-08-06T00:37:44.662Z,60.20
2018-08-06T00:40:18.098Z,60.10
2018-08-06T00:42:47.044Z,59.80
2018-08-06T00:45:17.650Z,59.80
2018-08-06T00:47:47.422Z,59.90
2018-08-06T00:50:16.154Z,59.90
2018-08-06T00:52:44.604Z,60.10
2018-08-06T00:55:15.621Z,60.80
2018-08-06T00:57:44.412Z,61.20
2018-08-06T01:00:14.743Z,61.00
2018-08-06T01:05:13.318Z,60.50
2018-08-06T01:07:42.944Z,60.30
2018-08-06T01:10:13.482Z,60.40
2018-08-06T01:12:42.651Z,60.20
2018-08-06T01:15:15.836Z,60.60
2018-08-06T01:17:44.714Z,61.00
2018-08-06T01:20:13.934Z,61.20
2018-08-06T01:22:43.425Z,61.60
2018-08-06T01:25:12.343Z,61.20
2018-08-06T01:27:41.020Z,61.20
2018-08-06T01:30:11.471Z,61.90
2018-08-06T01:32:40.201Z,62.70
2018-08-06T01:35:10.010Z,62.70
2018-08-06T01:37:39.006Z,63.00
2018-08-06T01:40:10.254Z,63.70
2018-08-06T01:42:38.960Z,63.30
2018-08-06T01:45:08.154Z,63.20
2018-08-06T01:47:38.298Z,64.00
2018-08-06T01:50:07.880Z,63.40
2018-08-06T01:52:36.733Z,63.20
2018-08-06T01:55:05.630Z,62.90
2018-08-06T01:57:34.338Z,62.70
2018-08-06T02:00:04.286Z,62.70
2018-08-06T02:02:33.090Z,62.90
2018-08-06T02:05:02.201Z,63.20
2018-08-06T02:07:30.923Z,63.40
2018-08-06T02:09:59.388Z,63.20
2018-08-06T02:12:28.455Z,63.20
2018-08-06T02:14:57.278Z,63.30
2018-08-06T02:17:25.752Z,63.40
2018-08-06T02:19:54.479Z,63.40
2018-08-06T02:22:23.823Z,63.80
2018-08-06T02:24:52.707Z,64.10
2018-08-06T02:27:21.433Z,64.70
2018-08-06T02:29:50.419Z,66.10
2018-08-06T02:32:19.435Z,66.20
2018-08-06T02:34:48.446Z,66.70
2018-08-06T02:37:16.955Z,66.20
2018-08-06T02:39:45.405Z,66.40
2018-08-06T02:42:14.281Z,66.40
2018-08-06T02:44:42.783Z,66.00
2018-08-06T02:47:11.562Z,65.80
2018-08-06T02:49:40.611Z,65.80
2018-08-06T02:52:09.326Z,65.80
2018-08-06T02:54:38.705Z,65.50
2018-08-06T02:57:07.423Z,65.50
2018-08-06T02:59:36.447Z,65.50
2018-08-06T03:02:05.430Z,65.40
2018-08-06T03:04:34.500Z,65.70
2018-08-06T03:07:03.519Z,66.00
2018-08-06T03:09:31.976Z,66.20
2018-08-06T03:12:00.671Z,66.40
2018-08-06T03:14:29.361Z,66.70
2018-08-06T03:16:57.906Z,66.40
2018-08-06T03:19:26.818Z,66.50
2018-08-06T03:21:55.510Z,66.70
2018-08-06T03:24:24.516Z,67.20
2018-08-06T03:26:53.002Z,67.40
2018-08-06T03:29:21.514Z,67.90
2018-08-06T03:31:50.029Z,67.90
2018-08-06T03:34:18.641Z,68.00
2018-08-06T03:36:47.432Z,68.00
2018-08-06T03:39:15.871Z,68.00
2018-08-06T03:41:44.591Z,68.50
2018-08-06T03:44:13.571Z,68.50
2018-08-06T03:46:42.579Z,69.00
2018-08-06T03:49:10.981Z,69.20
2018-08-06T03:51:39.700Z,69.10
2018-08-06T03:54:08.391Z,69.30
2018-08-06T03:56:36.835Z,68.90
2018-08-06T03:59:05.552Z,69.10
2018-08-06T04:01:34.554Z,69.10
2018-08-06T04:04:03.658Z,69.20
2018-08-06T04:06:32.097Z,69.40
2018-08-06T04:09:00.809Z,69.70
2018-08-06T04:11:29.465Z,70.10
2018-08-06T04:13:57.906Z,69.70
2018-08-06T04:16:34.630Z,70.00
2018-08-06T04:19:03.240Z,70.20
2018-08-06T04:21:31.704Z,70.90
2018-08-06T04:26:28.402Z,70.50
2018-08-06T04:28:56.826Z,70.00
2018-08-06T04:31:25.494Z,70.20
2018-08-06T04:33:53.967Z,70.60
2018-08-06T04:36:22.632Z,70.40
2018-08-06T04:38:51.111Z,70.40
2018-08-06T04:41:19.741Z,70.40
2018-08-06T04:43:48.663Z,70.30
2018-08-06T04:46:17.116Z,70.40
2018-08-06T04:48:45.559Z,70.40
2018-08-06T04:51:14.590Z,70.20
2018-08-06T04:53:43.229Z,70.00
2018-08-06T04:56:11.975Z,69.70
2018-08-06T05:01:09.458Z,69.90
2018-08-06T05:03:38.742Z,69.90
2018-08-06T05:06:07.177Z,69.70
2018-08-06T05:08:35.773Z,70.00
2018-08-06T05:11:04.502Z,69.90
2018-08-06T05:13:33.277Z,70.30
2018-08-06T05:16:02.470Z,71.00
2018-08-06T05:18:31.215Z,70.00
2018-08-06T05:21:00.150Z,70.30
2018-08-06T05:24:00.910Z,70.50
2018-08-06T05:26:30.395Z,70.40
2018-08-06T05:28:58.850Z,70.10
2018-08-06T05:31:28.459Z,70.10
2018-08-06T05:33:57.747Z,70.00
2018-08-06T05:36:26.992Z,70.40
2018-08-06T05:38:56.245Z,70.30
2018-08-06T05:41:26.164Z,70.80
2018-08-06T05:43:55.835Z,70.80
2018-08-06T05:46:24.975Z,70.70
2018-08-06T05:48:53.915Z,70.90
2018-08-06T05:51:23.001Z,70.20
2018-08-06T05:53:52.073Z,70.20
2018-08-06T05:56:20.899Z,69.70
2018-08-06T05:58:49.907Z,69.20
2018-08-06T06:01:18.902Z,69.40
2018-08-06T06:03:47.633Z,69.30
2018-08-06T06:06:16.455Z,68.90
2018-08-06T06:08:45.694Z,68.80
2018-08-06T06:11:14.706Z,70.00
2018-08-06T06:13:43.222Z,69.50
2018-08-06T06:16:12.053Z,69.50
2018-08-06T06:18:40.934Z,69.20
2018-08-06T06:21:09.726Z,68.50
2018-08-06T06:23:38.866Z,68.20
2018-08-06T06:26:07.914Z,67.50
2018-08-06T06:28:36.745Z,67.10
2018-08-06T06:31:05.863Z,66.90
2018-08-06T06:33:34.912Z,67.10
2018-08-06T06:36:03.886Z,66.80
2018-08-06T06:38:32.892Z,67.50
2018-08-06T06:41:01.964Z,68.60
2018-08-06T06:43:30.449Z,69.10
2018-08-06T06:45:59.181Z,69.10
2018-08-06T06:48:28.043Z,69.00
2018-08-06T06:50:56.798Z,68.50
2018-08-06T06:53:25.292Z,68.80
2018-08-06T06:55:54.019Z,68.40
2018-08-06T06:58:22.754Z,67.80
2018-08-06T07:00:51.223Z,67.70
2018-08-06T07:03:20.070Z,67.20
2018-08-06T07:05:48.971Z,67.50
2018-08-06T07:08:18.080Z,67.50
2018-08-06T07:10:46.814Z,67.30
2018-08-06T07:13:15.998Z,67.60
2018-08-06T07:15:44.874Z,68.20
2018-08-06T07:18:13.966Z,67.50
2018-08-06T07:20:42.978Z,67.50
2018-08-06T07:23:12.000Z,67.50
2018-08-06T07:25:41.038Z,66.50
2018-08-06T07:30:38.803Z,66.00
2018-08-06T07:33:07.903Z,66.10
2018-08-06T07:35:36.931Z,65.80
2018-08-06T07:38:05.894Z,65.00
2018-08-06T07:40:34.971Z,65.30
2018-08-06T07:43:04.023Z,65.30
2018-08-06T07:45:33.045Z,65.50
2018-08-06T07:48:02.102Z,64.70
2018-08-06T07:50:30.947Z,64.30
2018-08-06T07:52:59.974Z,63.90
2018-08-06T07:55:29.014Z,63.70
2018-08-06T07:57:57.745Z,62.20
2018-08-06T08:00:26.606Z,61.20
2018-08-06T08:02:55.166Z,61.00
2018-08-06T08:05:23.904Z,61.60
2018-08-06T08:07:52.864Z,61.60
2018-08-06T08:10:22.859Z,61.20
2018-08-06T08:12:51.301Z,61.00
2018-08-06T08:15:21.837Z,61.30
2018-08-06T08:17:50.855Z,61.30
2018-08-06T08:20:19.760Z,61.40
2018-08-06T08:22:48.597Z,61.50
2018-08-06T08:25:19.272Z,60.70
2018-08-06T08:27:47.993Z,59.70
2018-08-06T08:30:17.669Z,59.50
2018-08-06T08:32:46.755Z,59.00
2018-08-06T08:35:15.978Z,59.00
2018-08-06T08:37:45.164Z,58.40
2018-08-06T08:42:43.519Z,58.00
2018-08-06T08:45:13.980Z,58.20
2018-08-06T08:47:43.888Z,58.20
2018-08-06T08:50:15.322Z,58.50
2018-08-06T08:52:44.233Z,58.00
2018-08-06T08:55:14.467Z,57.90
2018-08-06T08:57:43.648Z,57.30
2018-08-06T09:00:14.891Z,56.90
2018-08-06T09:02:44.822Z,56.50
2018-08-06T09:05:13.918Z,56.20
2018-08-06T09:07:42.602Z,56.20
2018-08-06T09:10:12.598Z,56.70
2018-08-06T09:12:41.775Z,56.60
2018-08-06T09:17:40.051Z,57.20
2018-08-06T09:20:09.169Z,56.50
2018-08-06T09:22:39.876Z,56.70
2018-08-06T09:25:09.410Z,56.20
2018-08-06T09:27:40.567Z,55.70
2018-08-06T09:32:42.121Z,55.60
2018-08-06T09:35:11.183Z,55.40
2018-08-06T09:37:40.735Z,55.70
2018-08-06T09:40:12.357Z,54.50
2018-08-06T09:42:41.877Z,54.50
2018-08-06T09:45:14.687Z,55.00
2018-08-06T09:47:44.673Z,54.70
2018-08-06T09:50:14.056Z,53.90
2018-08-06T09:55:15.240Z,53.20
2018-08-06T09:57:45.239Z,54.00
2018-08-06T10:00:20.918Z,53.40
2018-08-06T10:02:50.479Z,53.40
2018-08-06T10:05:20.519Z,54.20
2018-08-06T10:07:49.242Z,52.90
2018-08-06T10:10:18.289Z,53.00
2018-08-06T10:12:47.567Z,53.30
2018-08-06T10:15:16.508Z,52.80
2018-08-06T10:17:46.096Z,53.40
2018-08-06T10:20:17.210Z,53.40
2018-08-06T10:22:45.682Z,52.70
2018-08-06T10:25:15.188Z,52.10
2018-08-06T10:27:44.380Z,51.60
2018-08-06T10:30:22.122Z,52.00
2018-08-06T10:32:50.979Z,50.90
2018-08-06T10:35:20.385Z,50.30
2018-08-06T10:37:49.265Z,49.40
2018-08-06T10:40:20.504Z,45.30
2018-08-06T10:42:49.471Z,43.70
2018-08-06T10:45:19.304Z,44.30
2018-08-06T10:47:48.614Z,42.10
2018-08-06T10:50:17.360Z,43.40
2018-08-06T10:52:46.151Z,43.90
2018-08-06T10:55:14.859Z,44.40
2018-08-06T10:57:44.323Z,44.10
2018-08-06T11:00:16.987Z,42.90
2018-08-06T11:02:45.554Z,44.10
2018-08-06T11:05:15.213Z,44.60
2018-08-06T11:07:43.695Z,44.30
2018-08-06T11:10:19.905Z,44.50
2018-08-06T11:12:48.612Z,45.50
2018-08-06T11:15:20.718Z,45.90
2018-08-06T11:17:49.818Z,46.00
2018-08-06T11:20:19.263Z,45.70
2018-08-06T11:22:48.409Z,45.30
2018-08-06T11:25:19.087Z,46.00
2018-08-06T11:27:47.950Z,46.10
2018-08-06T11:30:18.545Z,46.40
2018-08-06T11:32:48.157Z,46.50
2018-08-06T11:35:17.218Z,46.80
2018-08-06T11:37:45.703Z,46.50
2018-08-06T11:40:15.347Z,45.60
2018-08-06T11:42:44.822Z,45.50
2018-08-06T11:45:15.575Z,45.40
2018-08-06T11:47:44.304Z,45.60
2018-08-06T11:50:13.152Z,45.20
2018-08-06T11:52:41.806Z,44.80
2018-08-06T11:55:10.987Z,44.70
2018-08-06T11:57:39.810Z,44.20
2018-08-06T12:00:18.501Z,43.40
2018-08-06T12:02:47.292Z,43.00
2018-08-06T12:05:16.496Z,43.00
2018-08-06T12:07:45.201Z,43.40
2018-08-06T12:10:15.711Z,42.50
2018-08-06T12:12:45.313Z,42.40
2018-08-06T12:15:14.120Z,41.80
2018-08-06T12:17:43.427Z,42.00
2018-08-06T12:20:15.016Z,41.20
2018-08-06T12:22:44.868Z,40.60
2018-08-06T12:25:14.482Z,40.40
2018-08-06T12:27:44.094Z,40.40
2018-08-06T12:32:43.402Z,41.00
2018-08-06T12:35:12.573Z,40.60
2018-08-06T12:37:41.337Z,40.20
2018-08-06T12:40:14.163Z,40.00
2018-08-06T12:42:43.060Z,39.80
2018-08-06T12:45:12.826Z,39.20
2018-08-06T12:47:41.837Z,39.00
2018-08-06T12:50:11.625Z,38.40
2018-08-06T12:52:41.292Z,38.70
2018-08-06T12:55:11.545Z,39.00
2018-08-06T12:57:40.866Z,38.10
2018-08-06T13:00:16.460Z,37.90
2018-08-06T13:02:46.254Z,37.30
2018-08-06T13:05:14.983Z,37.60
2018-08-06T13:07:43.796Z,36.80
2018-08-06T13:10:12.784Z,36.40
2018-08-06T13:12:41.512Z,35.50
2018-08-06T13:15:11.828Z,35.50
2018-08-06T13:17:41.009Z,35.00
2018-08-06T13:20:09.976Z,35.50
2018-08-06T13:22:39.626Z,34.80
2018-08-06T13:25:10.085Z,34.60
2018-08-06T13:27:39.632Z,34.30
2018-08-06T13:30:10.941Z,34.50
2018-08-06T13:32:39.886Z,33.90
2018-08-06T13:35:08.640Z,33.50
2018-08-06T13:37:37.485Z,33.20
2018-08-06T13:40:07.149Z,32.30
2018-08-06T13:42:35.876Z,32.80
2018-08-06T13:45:06.136Z,32.70
2018-08-06T13:47:34.946Z,32.20
2018-08-06T13:50:03.746Z,31.80
2018-08-06T13:52:32.524Z,31.90
2018-08-06T13:55:01.504Z,30.70
2018-08-06T13:57:30.535Z,31.10
2018-08-06T13:59:59.557Z,31.30
2018-08-06T14:02:28.739Z,31.40
2018-08-06T14:04:57.570Z,30.50
2018-08-06T14:07:26.590Z,30.30
2018-08-06T14:09:55.696Z,29.60
2018-08-06T14:12:24.384Z,29.10
2018-08-06T14:14:53.107Z,29.70
2018-08-06T14:17:21.847Z,29.70
2018-08-06T14:19:50.661Z,29.10
2018-08-06T14:22:19.421Z,29.50
2018-08-06T14:24:47.894Z,29.40
2018-08-06T14:27:16.648Z,28.30
2018-08-06T14:29:45.781Z,28.40
2018-08-06T14:32:14.530Z,28.60
2018-08-06T14:34:43.595Z,28.60
2018-08-06T14:37:12.573Z,28.00
2018-08-06T14:39:41.704Z,27.60
2018-08-06T14:42:10.436Z,27.50
2018-08-06T14:44:39.784Z,27.60
2018-08-06T14:47:08.467Z,27.70
2018-08-06T14:49:37.228Z,27.40
2018-08-06T14:52:05.946Z,27.00
2018-08-06T14:54:34.897Z,27.60
2018-08-06T14:57:03.633Z,27.60
2018-08-06T15:02:01.658Z,27.10
2018-08-06T15:04:30.755Z,27.50
2018-08-06T15:06:59.555Z,27.30
2018-08-06T15:09:28.386Z,27.10
2018-08-06T15:11:57.127Z,27.40
2018-08-06T15:14:25.843Z,27.90
2018-08-06T15:16:54.595Z,27.30
2018-08-06T15:19:23.531Z,27.30
2018-08-06T15:21:52.228Z,27.20
2018-08-06T15:24:20.984Z,27.40
2018-08-06T15:29:18.476Z,28.90
2018-08-06T15:31:47.331Z,28.80
2018-08-06T15:34:16.262Z,28.90
2018-08-06T15:36:44.925Z,29.50
2018-08-06T15:39:14.888Z,29.60
2018-08-06T15:41:44.414Z,29.90
2018-08-06T15:44:13.212Z,30.00
2018-08-06T15:46:41.950Z,29.90
2018-08-06T15:49:10.723Z,30.00
2018-08-06T15:51:39.828Z,31.00
2018-08-06T15:54:09.128Z,31.80
2018-08-06T15:56:37.863Z,32.10
2018-08-06T15:59:06.555Z,32.00
2018-08-06T16:01:35.670Z,31.90
2018-08-06T16:04:04.523Z,32.40
2018-08-06T16:06:33.355Z,32.10
2018-08-06T16:09:02.140Z,32.90
2018-08-06T16:11:30.860Z,32.80
2018-08-06T16:13:59.572Z,33.20
2018-08-06T16:18:57.236Z,33.90
2018-08-06T16:21:26.019Z,33.70
2018-08-06T16:23:54.766Z,33.20
2018-08-06T16:26:23.913Z,34.00
2018-08-06T16:28:52.522Z,34.50
2018-08-06T16:31:21.498Z,34.50
2018-08-06T16:33:50.268Z,34.70
2018-08-06T16:36:19.264Z,34.70
2018-08-06T16:38:48.677Z,35.00
2018-08-06T16:41:17.447Z,35.00
2018-08-06T16:43:46.055Z,34.80
2018-08-06T16:46:14.902Z,34.90
2018-08-06T16:48:43.901Z,34.70
2018-08-06T16:51:12.892Z,34.90
2018-08-06T16:53:41.663Z,35.70
2018-08-06T16:56:10.327Z,35.00
2018-08-06T16:58:40.116Z,34.80
2018-08-06T17:01:09.035Z,34.90
2018-08-06T17:03:37.858Z,35.30
2018-08-06T17:06:07.035Z,35.60
2018-08-06T17:08:35.837Z,35.80
2018-08-06T17:11:04.968Z,36.10
2018-08-06T17:13:34.049Z,35.00
2018-08-06T17:16:02.831Z,34.90
2018-08-06T17:18:31.900Z,35.30
2018-08-06T17:21:00.878Z,35.30
2018-08-06T17:23:29.910Z,35.40
2018-08-06T17:25:58.412Z,35.90
2018-08-06T17:28:27.115Z,36.00
2018-08-06T17:30:56.411Z,36.70
2018-08-06T17:33:25.475Z,36.80
2018-08-06T17:35:55.099Z,36.80
2018-08-06T17:38:24.013Z,36.70
2018-08-06T17:40:52.755Z,36.70
2018-08-06T17:43:21.793Z,37.00
2018-08-06T17:45:50.319Z,36.80
2018-08-06T17:48:19.072Z,37.10
2018-08-06T17:53:16.320Z,37.20
2018-08-06T17:55:45.421Z,37.10
2018-08-06T17:58:14.226Z,37.80
2018-08-06T18:00:42.913Z,37.80
2018-08-06T18:03:11.953Z,38.10
2018-08-06T18:05:40.481Z,38.60
2018-08-06T18:08:09.264Z,38.80
2018-08-06T18:10:37.993Z,38.90
2018-08-06T18:13:07.244Z,39.00
2018-08-06T18:15:36.007Z,39.70
2018-08-06T18:18:05.871Z,40.00
2018-08-06T18:20:34.591Z,40.20
2018-08-06T18:23:03.317Z,40.00
2018-08-06T18:25:32.015Z,39.90
2018-08-06T18:28:01.039Z,39.90
2018-08-06T18:30:30.057Z,40.00
2018-08-06T18:32:58.827Z,40.30
2018-08-06T18:35:27.563Z,40.60
2018-08-06T18:37:56.243Z,40.50
2018-08-06T18:40:24.949Z,40.90
2018-08-06T18:42:53.674Z,40.90
2018-08-06T18:45:22.670Z,41.40
2018-08-06T18:47:52.121Z,41.70
2018-08-06T18:50:21.250Z,43.10
2018-08-06T18:52:50.511Z,42.30
2018-08-06T18:55:19.481Z,42.50
2018-08-06T18:57:48.336Z,42.90
2018-08-06T19:00:19.433Z,42.90
2018-08-06T19:02:48.587Z,43.30
2018-08-06T19:05:17.328Z,43.70
2018-08-06T19:07:46.278Z,43.90
2018-08-06T19:10:14.992Z,44.20
2018-08-06T19:12:49.200Z,44.40
2018-08-06T19:15:18.260Z,44.50
2018-08-06T19:17:52.447Z,44.50
2018-08-06T19:20:21.223Z,44.70
2018-08-06T19:22:49.951Z,44.40
2018-08-06T19:25:24.067Z,44.40
2018-08-06T19:27:52.554Z,45.00
2018-08-06T19:30:21.533Z,44.90
2018-08-06T19:32:50.413Z,44.50
2018-08-06T19:35:19.151Z,44.50
2018-08-06T19:37:49.743Z,45.00
2018-08-06T19:40:18.549Z,44.10
2018-08-06T19:42:52.705Z,44.50
2018-08-06T19:45:21.604Z,44.20
2018-08-06T19:47:50.333Z,44.40
2018-08-06T19:50:24.590Z,44.30
2018-08-06T19:52:53.466Z,44.70
2018-08-06T19:55:28.355Z,44.10
2018-08-06T19:57:57.097Z,44.60
2018-08-06T20:00:26.105Z,44.60
2018-08-06T20:02:54.886Z,44.70
2018-08-06T20:05:23.786Z,44.90
2018-08-06T20:07:52.392Z,44.80
2018-08-06T20:10:21.189Z,45.00
2018-08-06T20:12:50.079Z,45.40
2018-08-06T20:15:20.160Z,45.40
2018-08-06T20:17:49.379Z,45.30
2018-08-06T20:20:18.275Z,45.80
2018-08-06T20:22:46.931Z,45.70
2018-08-06T20:25:17.863Z,46.10
2018-08-06T20:27:47.550Z,45.80
2018-08-06T20:30:17.918Z,46.20
2018-08-06T20:32:46.572Z,45.90
2018-08-06T20:35:16.365Z,46.50
2018-08-06T20:37:45.131Z,46.80
2018-08-06T20:40:15.546Z,47.20
2018-08-06T20:42:45.767Z,46.70
2018-08-06T20:45:16.724Z,46.90
2018-08-06T20:47:45.740Z,46.60
2018-08-06T20:50:18.111Z,46.90
2018-08-06T20:52:47.612Z,47.20
2018-08-06T20:55:16.684Z,47.10
2018-08-06T20:57:46.627Z,47.40
2018-08-06T21:00:19.471Z,47.70
2018-08-06T21:02:49.042Z,48.00
2018-08-06T21:05:18.409Z,48.20
2018-08-06T21:07:47.504Z,48.20
2018-08-06T21:10:17.041Z,48.10
2018-08-06T21:12:46.469Z,48.70
2018-08-06T21:15:15.834Z,48.80
2018-08-06T21:17:44.693Z,48.70
2018-08-06T21:20:15.687Z,49.10
2018-08-06T21:22:45.914Z,49.90
2018-08-06T21:25:14.864Z,49.00
2018-08-06T21:27:44.795Z,49.00
2018-08-06T21:30:16.221Z,49.60
2018-08-06T21:32:48.415Z,49.60
2018-08-06T21:35:18.088Z,49.60
2018-08-06T21:37:47.745Z,49.90
2018-08-06T21:40:16.879Z,50.20
2018-08-06T21:42:45.963Z,50.10
2018-08-06T21:45:14.715Z,50.40
2018-08-06T21:47:43.531Z,50.70
2018-08-06T21:50:12.921Z,50.80
2018-08-06T21:52:41.727Z,50.80
2018-08-06T21:55:10.936Z,51.20
2018-08-06T21:57:40.489Z,51.20
2018-08-06T22:00:23.185Z,51.50
2018-08-06T22:02:51.890Z,51.40
2018-08-06T22:05:20.676Z,51.60
2018-08-06T22:07:49.393Z,51.80
2018-08-06T22:10:18.200Z,51.90
2018-08-06T22:12:46.639Z,52.10
2018-08-06T22:15:15.415Z,51.70
2018-08-06T22:17:44.385Z,51.70
2018-08-06T22:20:13.425Z,51.60
2018-08-06T22:22:42.570Z,51.60
2018-08-06T22:25:11.306Z,51.50
2018-08-06T22:27:40.468Z,51.50
2018-08-06T22:30:10.346Z,51.40
2018-08-06T22:32:40.360Z,51.30
2018-08-06T22:35:11.562Z,51.60
2018-08-06T22:37:41.656Z,51.90
2018-08-06T22:40:12.023Z,51.60
2018-08-06T22:42:41.092Z,51.70
2018-08-06T22:45:11.240Z,51.90
2018-08-06T22:47:41.511Z,52.10
2018-08-06T22:50:11.845Z,52.10
2018-08-06T22:52:40.814Z,52.20
2018-08-06T22:55:10.883Z,52.40
2018-08-06T22:57:40.758Z,52.60
2018-08-06T23:00:11.361Z,52.40
2018-08-06T23:02:41.174Z,52.70
2018-08-06T23:05:10.755Z,52.70
2018-08-06T23:07:40.704Z,52.70
2018-08-06T23:10:11.702Z,52.70
2018-08-06T23:12:40.803Z,52.80
2018-08-06T23:15:11.924Z,53.20
2018-08-06T23:17:40.979Z,53.30
2018-08-06T23:20:09.983Z,53.30
2018-08-06T23:22:39.162Z,53.70
2018-08-06T23:25:08.389Z,53.50
2018-08-06T23:27:38.263Z,53.30
2018-08-06T23:30:10.175Z,53.60
2018-08-06T23:35:10.311Z,53.20
2018-08-06T23:37:41.083Z,53.30
2018-08-06T23:40:10.702Z,53.30
2018-08-06T23:42:41.026Z,53.40
2018-08-06T23:45:11.055Z,53.30
2018-08-06T23:47:41.030Z,53.30
2018-08-06T23:50:11.508Z,53.40
2018-08-06T23:52:42.330Z,53.70
2018-08-06T23:55:12.550Z,54.00
2018-08-06T23:57:41.126Z,54.20
